createdAt,value
2018-11-10T00:00:15.097Z,186.90
2018-11-10T00:02:43.290Z,202.87
2018-11-10T00:05:11.179Z,190.13
2018-11-10T00:07:38.890Z,183.90
2018-11-10T00:10:06.596Z,197.83
2018-11-10T00:12:34.394Z,188.43
2018-11-10T00:15:02.105Z,187.10
2018-11-10T00:17:29.804Z,170.27
2018-11-10T00:19:57.520Z,149.57
2018-11-10T00:22:25.253Z,154.73
2018-11-10T00:24:52.968Z,174.27
2018-11-10T00:27:20.644Z,173.40
2018-11-10T00:29:48.351Z,167.07
2018-11-10T00:32:16.112Z,166.80
2018-11-10T00:34:43.857Z,167.93
2018-11-10T00:37:11.484Z,168.70
2018-11-10T00:39:39.207Z,167.00
2018-11-10T00:42:06.959Z,165.00
2018-11-10T00:44:34.664Z,173.37
2018-11-10T00:47:02.376Z,163.53
2018-11-10T00:49:30.096Z,166.63
2018-11-10T00:51:57.780Z,159.03
2018-11-10T00:54:25.502Z,172.27
2018-11-10T00:56:53.195Z,161.23
2018-11-10T00:59:20.937Z,175.83
2018-11-10T01:01:48.674Z,171.83
2018-11-10T01:04:16.340Z,165.50
2018-11-10T01:06:44.200Z,161.43
2018-11-10T01:09:11.891Z,172.43
2018-11-10T01:11:39.614Z,169.83
2018-11-10T01:14:07.959Z,171.40
2018-11-10T01:16:35.766Z,173.67
2018-11-10T01:19:03.467Z,176.83
2018-11-10T01:21:31.168Z,191.23
2018-11-10T01:23:58.885Z,176.03
2018-11-10T01:26:26.597Z,182.57
2018-11-10T01:28:54.301Z,180.10
2018-11-10T01:31:22.318Z,171.93
2018-11-10T01:33:50.045Z,175.00
2018-11-10T01:36:17.736Z,169.60
2018-11-10T01:38:45.439Z,173.43
2018-11-10T01:41:13.156Z,165.77
2018-11-10T01:43:40.880Z,167.60
2018-11-10T01:46:08.610Z,150.27
2018-11-10T01:48:36.296Z,166.60
2018-11-10T01:51:04.392Z,172.33
2018-11-10T01:53:32.112Z,185.50
2018-11-10T01:55:59.819Z,165.17
2018-11-10T01:58:27.527Z,194.20
2018-11-10T02:00:55.235Z,199.57
2018-11-10T02:03:22.938Z,169.77
2018-11-10T02:05:50.605Z,156.00
2018-11-10T02:08:18.456Z,175.67
2018-11-10T02:10:46.164Z,162.83
2018-11-10T02:13:13.827Z,153.37
2018-11-10T02:15:41.541Z,168.40
2018-11-10T02:18:09.308Z,159.77
2018-11-10T02:20:37.039Z,157.70
2018-11-10T02:23:05.035Z,162.70
2018-11-10T02:25:33.244Z,164.10
2018-11-10T02:28:00.927Z,165.63
2018-11-10T02:30:28.672Z,167.37
2018-11-10T02:32:56.320Z,180.83
2018-11-10T02:35:24.032Z,190.37
2018-11-10T02:37:51.740Z,167.30
2018-11-10T02:40:19.432Z,149.93
2018-11-10T02:42:47.112Z,168.07
2018-11-10T02:45:15.344Z,166.80
2018-11-10T02:47:43.858Z,159.07
2018-11-10T02:50:11.567Z,162.80
2018-11-10T02:52:39.328Z,181.13
2018-11-10T02:55:07.805Z,160.90
2018-11-10T02:57:35.507Z,169.03
2018-11-10T03:00:03.223Z,163.63
2018-11-10T03:02:30.901Z,177.67
2018-11-10T03:04:58.623Z,169.23
2018-11-10T03:07:26.342Z,162.27
2018-11-10T03:09:54.083Z,167.77
2018-11-10T03:12:21.762Z,169.00
2018-11-10T03:14:49.460Z,168.37
2018-11-10T03:17:17.147Z,174.17
2018-11-10T03:19:44.851Z,170.13
2018-11-10T03:22:12.559Z,165.90
2018-11-10T03:24:40.244Z,172.20
2018-11-10T03:27:07.910Z,163.23
2018-11-10T03:29:35.673Z,172.20
2018-11-10T03:32:03.396Z,150.23
2018-11-10T03:34:31.042Z,147.90
2018-11-10T03:36:58.764Z,144.20
2018-11-10T03:39:26.423Z,151.93
2018-11-10T03:41:54.071Z,145.13
2018-11-10T03:44:21.800Z,162.10
2018-11-10T03:46:49.491Z,162.20
2018-11-10T03:49:17.142Z,151.53
2018-11-10T03:51:44.828Z,143.20
2018-11-10T03:54:12.480Z,160.03
2018-11-10T03:56:40.139Z,145.90
2018-11-10T03:59:07.848Z,154.50
2018-11-10T04:01:35.495Z,160.47
2018-11-10T04:04:03.171Z,158.37
2018-11-10T04:06:30.879Z,160.87
2018-11-10T04:08:58.543Z,165.13
2018-11-10T04:11:26.279Z,156.33
2018-11-10T04:13:53.994Z,165.23
2018-11-10T04:16:21.707Z,159.13
2018-11-10T04:18:49.356Z,160.27
2018-11-10T04:21:17.073Z,158.97
2018-11-10T04:23:44.768Z,167.90
2018-11-10T04:26:12.446Z,145.07
2018-11-10T04:28:40.156Z,154.17
2018-11-10T04:31:07.835Z,161.93
2018-11-10T04:33:35.524Z,142.57
2018-11-10T04:36:03.230Z,148.53
2018-11-10T04:38:30.909Z,155.57
2018-11-10T04:40:58.579Z,160.30
2018-11-10T04:43:26.316Z,156.60
2018-11-10T04:45:54.018Z,158.17
2018-11-10T04:48:21.680Z,154.47
2018-11-10T04:50:49.370Z,154.07
2018-11-10T04:53:17.052Z,149.73
2018-11-10T04:55:44.723Z,153.47
2018-11-10T04:58:12.455Z,165.53
2018-11-10T05:00:40.122Z,151.87
2018-11-10T05:03:07.795Z,164.30
2018-11-10T05:05:35.487Z,163.93
2018-11-10T05:08:03.174Z,166.97
2018-11-10T05:10:30.843Z,165.80
2018-11-10T05:12:58.630Z,170.77
2018-11-10T05:15:26.294Z,165.03
2018-11-10T05:17:53.964Z,171.37
2018-11-10T05:20:21.642Z,154.13
2018-11-10T05:22:49.322Z,156.60
2018-11-10T05:25:16.950Z,159.50
2018-11-10T05:27:44.666Z,166.73
2018-11-10T05:30:12.344Z,161.13
2018-11-10T05:32:40.007Z,161.57
2018-11-10T05:35:08.374Z,162.90
2018-11-10T05:37:36.119Z,155.93
2018-11-10T05:40:04.844Z,157.80
2018-11-10T05:42:32.551Z,160.70
2018-11-10T05:45:00.210Z,155.60
2018-11-10T05:47:27.879Z,155.03
2018-11-10T05:49:55.578Z,161.93
2018-11-10T05:52:23.294Z,160.83
2018-11-10T05:54:50.974Z,164.87
2018-11-10T05:57:18.754Z,154.43
2018-11-10T05:59:46.355Z,167.63
2018-11-10T06:02:14.036Z,172.20
2018-11-10T06:04:41.740Z,172.77
2018-11-10T06:07:09.416Z,174.00
2018-11-10T06:09:37.195Z,169.33
2018-11-10T06:12:04.966Z,155.77
2018-11-10T06:14:32.974Z,164.40
2018-11-10T06:17:00.656Z,161.87
2018-11-10T06:19:28.408Z,162.10
2018-11-10T06:21:56.067Z,162.10
2018-11-10T06:24:23.729Z,150.40
2018-11-10T06:26:51.461Z,160.23
2018-11-10T06:29:19.166Z,158.30
2018-11-10T06:31:46.845Z,164.50
2018-11-10T06:34:14.643Z,165.53
2018-11-10T06:36:42.358Z,167.57
2018-11-10T06:39:11.157Z,171.33
2018-11-10T06:41:38.917Z,159.17
2018-11-10T06:44:06.913Z,160.20
2018-11-10T06:46:34.619Z,161.90
2018-11-10T06:49:02.390Z,159.70
2018-11-10T06:51:30.071Z,170.73
2018-11-10T06:53:57.770Z,164.00
2018-11-10T06:56:25.532Z,165.87
2018-11-10T06:58:53.223Z,172.40
2018-11-10T07:01:20.935Z,167.60
2018-11-10T07:03:48.659Z,162.80
2018-11-10T07:06:16.324Z,164.83
2018-11-10T07:08:44.036Z,164.50
2018-11-10T07:11:11.751Z,154.93
2018-11-10T07:13:39.454Z,155.63
2018-11-10T07:40:13.540Z,148.10
2018-11-10T07:42:41.250Z,160.97
2018-11-10T07:45:10.679Z,146.10
2018-11-10T07:47:38.399Z,150.83
2018-11-10T07:50:07.124Z,143.37
2018-11-10T07:52:34.870Z,167.53
2018-11-10T07:55:02.631Z,147.93
2018-11-10T07:57:30.511Z,149.60
2018-11-10T07:59:58.186Z,157.03
2018-11-10T08:02:25.916Z,149.93
2018-11-10T08:04:53.675Z,155.63
2018-11-10T08:07:21.702Z,152.30
2018-11-10T08:09:49.423Z,148.57
2018-11-10T08:12:17.125Z,135.50
2018-11-10T08:14:44.806Z,147.47
2018-11-10T08:17:12.549Z,147.10
2018-11-10T08:19:40.253Z,155.50
2018-11-10T08:22:07.962Z,152.57
2018-11-10T08:24:35.671Z,156.30
2018-11-10T08:27:03.421Z,176.40
2018-11-10T08:29:31.090Z,157.83
2018-11-10T08:31:58.805Z,154.33
2018-11-10T08:34:26.486Z,162.50
2018-11-10T08:36:54.220Z,164.97
2018-11-10T08:39:22.003Z,159.30
2018-11-10T08:41:49.775Z,151.80
2018-11-10T08:44:17.560Z,151.70
2018-11-10T08:46:45.287Z,153.03
2018-11-10T08:49:13.024Z,153.30
2018-11-10T08:51:40.720Z,148.27
2018-11-10T08:54:08.476Z,144.40
2018-11-10T08:56:36.210Z,150.37
2018-11-10T08:59:04.013Z,152.90
2018-11-10T09:01:31.957Z,139.67
2018-11-10T09:03:59.784Z,149.47
2018-11-10T09:06:27.490Z,141.10
2018-11-10T09:08:55.322Z,143.83
2018-11-10T09:11:23.044Z,140.77
2018-11-10T09:13:50.820Z,150.03
2018-11-10T09:16:18.531Z,147.83
2018-11-10T09:18:46.218Z,139.73
2018-11-10T09:21:14.044Z,150.73
2018-11-10T09:23:41.710Z,140.57
2018-11-10T09:26:09.427Z,136.03
2018-11-10T09:28:37.151Z,151.47
2018-11-10T09:31:05.159Z,155.70
2018-11-10T09:33:32.803Z,152.70
2018-11-10T09:36:00.518Z,146.13
2018-11-10T09:38:28.299Z,155.90
2018-11-10T09:40:56.071Z,153.17
2018-11-10T09:43:24.052Z,152.80
2018-11-10T09:45:51.803Z,161.47
2018-11-10T09:48:19.536Z,126.77
2018-11-10T09:50:47.299Z,142.93
2018-11-10T09:53:15.023Z,138.97
2018-11-10T09:55:42.701Z,155.37
2018-11-10T09:58:10.410Z,152.40
2018-11-10T10:00:38.123Z,156.53
2018-11-10T10:03:05.826Z,157.67
2018-11-10T10:05:33.544Z,151.53
2018-11-10T10:08:01.311Z,145.37
2018-11-10T10:10:29.036Z,148.27
2018-11-10T10:12:56.754Z,157.10
2018-11-10T10:15:24.536Z,150.40
2018-11-10T10:17:52.283Z,149.93
2018-11-10T10:20:20.370Z,151.07
2018-11-10T10:22:49.071Z,154.17
2018-11-10T10:25:17.452Z,158.17
2018-11-10T10:27:46.016Z,148.23
2018-11-10T10:30:19.241Z,153.43
2018-11-10T10:32:47.805Z,139.67
2018-11-10T10:35:15.930Z,134.70
2018-11-10T10:37:44.546Z,138.20
2018-11-10T10:40:12.904Z,143.40
2018-11-10T10:42:40.677Z,141.00
2018-11-10T10:45:10.910Z,147.03
2018-11-10T10:47:38.657Z,151.37
2018-11-10T10:50:07.574Z,150.13
2018-11-10T10:52:35.370Z,148.47
2018-11-10T10:55:03.091Z,143.77
2018-11-10T10:57:30.895Z,144.70
2018-11-10T10:59:58.684Z,149.40
2018-11-10T11:02:32.040Z,160.57
2018-11-10T11:05:04.364Z,141.93
2018-11-10T11:07:32.190Z,148.17
2018-11-10T11:09:59.911Z,149.17
2018-11-10T11:12:27.652Z,160.40
2018-11-10T11:14:55.398Z,140.53
2018-11-10T11:17:23.101Z,166.87
2018-11-10T11:19:50.821Z,154.27
2018-11-10T11:22:19.344Z,139.10
2018-11-10T11:24:48.378Z,149.77
2018-11-10T11:27:16.368Z,154.47
2018-11-10T11:29:44.148Z,151.73
2018-11-10T11:32:11.889Z,160.20
2018-11-10T11:34:39.698Z,163.20
2018-11-10T11:37:07.414Z,158.33
2018-11-10T11:39:35.144Z,169.20
2018-11-10T11:42:02.877Z,156.57
2018-11-10T11:44:30.627Z,147.90
2018-11-10T11:46:58.348Z,150.33
2018-11-10T11:49:26.088Z,153.40
2018-11-10T11:51:53.819Z,164.00
2018-11-10T11:54:21.594Z,167.23
2018-11-10T11:56:49.429Z,166.53
2018-11-10T11:59:17.185Z,158.73
2018-11-10T12:01:44.898Z,186.50
2018-11-10T12:04:12.705Z,171.40
2018-11-10T12:06:40.443Z,164.17
2018-11-10T12:09:08.860Z,165.53
2018-11-10T12:11:36.644Z,150.07
2018-11-10T12:14:04.680Z,181.07
2018-11-10T12:16:32.447Z,150.80
2018-11-10T12:19:00.269Z,172.07
2018-11-10T12:21:28.018Z,164.27
2018-11-10T12:23:55.846Z,177.93
2018-11-10T12:26:23.679Z,171.00
2018-11-10T12:28:51.429Z,168.93
2018-11-10T12:31:19.200Z,178.83
2018-11-10T12:33:46.921Z,176.37
2018-11-10T12:36:14.607Z,171.13
2018-11-10T12:38:42.443Z,185.97
2018-11-10T12:41:10.200Z,186.47
2018-11-10T12:43:38.254Z,177.17
2018-11-10T12:46:06.103Z,167.67
2018-11-10T12:48:33.920Z,172.90
2018-11-10T12:51:01.638Z,168.07
2018-11-10T12:53:29.344Z,159.77
2018-11-10T12:55:57.140Z,166.70
2018-11-10T12:58:24.913Z,159.27
2018-11-10T13:00:53.655Z,165.70
2018-11-10T13:03:21.409Z,182.07
2018-11-10T13:05:49.118Z,171.33
2018-11-10T13:08:16.942Z,165.77
2018-11-10T13:10:44.666Z,188.63
2018-11-10T13:13:12.399Z,176.40
2018-11-10T13:15:40.143Z,194.37
2018-11-10T13:18:07.917Z,196.80
2018-11-10T13:20:35.663Z,194.20
2018-11-10T13:23:03.411Z,182.03
2018-11-10T13:25:31.230Z,189.17
2018-11-10T13:27:58.992Z,201.23
2018-11-10T13:30:26.758Z,245.80
2018-11-10T13:32:54.504Z,198.20
2018-11-10T13:35:22.228Z,222.30
2018-11-10T13:37:50.024Z,226.03
2018-11-10T13:40:17.835Z,228.27
2018-11-10T13:42:45.576Z,192.80
2018-11-10T13:45:13.935Z,198.83
2018-11-10T13:47:41.736Z,219.47
2018-11-10T13:50:10.333Z,202.60
2018-11-10T13:52:39.140Z,216.47
2018-11-10T13:55:06.595Z,190.90
2018-11-10T13:57:34.374Z,199.67
2018-11-10T14:00:02.108Z,196.63
2018-11-10T14:02:29.872Z,194.50
2018-11-10T14:04:57.615Z,191.83
2018-11-10T14:07:25.397Z,197.70
2018-11-10T14:09:53.135Z,195.73
2018-11-10T14:12:20.838Z,193.93
2018-11-10T14:14:48.518Z,217.33
2018-11-10T14:17:16.278Z,208.33
2018-11-10T14:19:43.987Z,185.20
2018-11-10T14:22:11.743Z,192.20
2018-11-10T14:24:39.551Z,180.97
2018-11-10T14:27:07.264Z,183.47
2018-11-10T14:29:34.963Z,187.33
2018-11-10T14:32:02.690Z,206.17
2018-11-10T14:34:30.473Z,196.90
2018-11-10T14:36:58.204Z,171.43
2018-11-10T14:39:25.945Z,182.73
2018-11-10T14:41:53.654Z,174.77
2018-11-10T14:44:21.388Z,199.87
2018-11-10T14:46:49.224Z,201.03
2018-11-10T14:49:16.958Z,183.10
2018-11-10T14:51:44.647Z,194.33
2018-11-10T14:54:12.400Z,200.30
2018-11-10T14:56:40.108Z,212.57
2018-11-10T14:59:08.033Z,200.77
2018-11-10T15:01:35.884Z,200.17
2018-11-10T15:04:03.600Z,248.60
2018-11-10T15:06:31.318Z,196.80
2018-11-10T15:08:59.067Z,216.10
2018-11-10T15:11:26.780Z,205.87
2018-11-10T15:13:54.519Z,211.60
2018-11-10T15:16:22.233Z,184.90
2018-11-10T15:18:49.935Z,210.03
2018-11-10T15:21:17.658Z,208.80
2018-11-10T15:23:45.690Z,220.73
2018-11-10T15:26:13.476Z,202.20
2018-11-10T19:15:00.906Z,221.23
2018-11-10T19:20:03.016Z,143.97
2018-11-10T19:22:30.748Z,161.53
2018-11-10T19:26:26.495Z,118.83
2018-11-10T19:28:54.272Z,73.63
2018-11-10T19:31:22.056Z,47.47
2018-11-10T19:33:49.827Z,51.13
2018-11-10T19:36:17.572Z,43.63
2018-11-10T19:38:45.384Z,42.87
2018-11-10T19:46:13.120Z,46.30
2018-11-10T19:48:40.910Z,40.73
2018-11-10T19:51:11.084Z,47.90
2018-11-10T19:53:39.131Z,45.37
2018-11-10T19:56:07.531Z,41.23
2018-11-10T19:58:35.323Z,91.47
2018-11-10T20:01:03.037Z,107.07
2018-11-10T20:03:31.107Z,92.70
2018-11-10T20:05:58.926Z,73.17
2018-11-10T20:08:26.671Z,67.27
2018-11-10T20:10:54.606Z,71.13
2018-11-10T20:13:22.332Z,60.73
2018-11-10T20:15:50.061Z,55.70
2018-11-10T20:18:17.808Z,54.33
2018-11-10T20:20:45.712Z,56.57
2018-11-10T20:23:13.736Z,45.53
2018-11-10T20:25:41.400Z,49.07
2018-11-10T20:28:09.104Z,50.40
2018-11-10T20:30:36.797Z,47.57
2018-11-10T20:33:04.684Z,54.27
2018-11-10T20:35:32.408Z,56.10
2018-11-10T20:38:00.151Z,49.13
2018-11-10T20:40:27.871Z,54.53
2018-11-10T20:42:55.869Z,46.00
2018-11-10T20:45:23.879Z,54.93
2018-11-10T20:47:51.858Z,46.10
2018-11-10T20:50:19.564Z,40.77
2018-11-10T20:52:47.346Z,35.30
2018-11-10T20:55:15.739Z,46.13
2018-11-10T20:57:43.474Z,28.80
2018-11-10T21:00:13.641Z,28.37
2018-11-10T21:02:42.315Z,31.77
2018-11-10T21:05:11.403Z,34.17
2018-11-10T21:07:39.132Z,28.87
2018-11-10T21:10:09.223Z,34.27
2018-11-10T21:17:44.619Z,26.40
2018-11-10T21:20:12.967Z,33.07
2018-11-10T21:22:40.807Z,57.53
2018-11-10T21:25:10.348Z,28.13
2018-11-10T21:27:38.384Z,28.97
2018-11-10T21:30:07.325Z,26.07
2018-11-10T21:32:35.025Z,24.60
2018-11-10T21:35:02.762Z,37.93
2018-11-10T21:37:30.619Z,36.13
2018-11-10T21:39:58.423Z,45.83
2018-11-10T21:42:26.155Z,32.73
2018-11-10T21:44:54.045Z,50.17
2018-11-10T21:47:21.780Z,56.00
2018-11-10T21:49:49.592Z,80.23
2018-11-10T21:52:17.392Z,62.27
2018-11-10T21:54:45.123Z,52.70
2018-11-10T21:57:12.776Z,64.43
2018-11-10T21:59:40.460Z,84.60
2018-11-10T22:02:08.262Z,62.30
2018-11-10T22:04:36.149Z,74.40
2018-11-10T22:07:03.860Z,59.50
2018-11-10T22:09:31.896Z,51.17
2018-11-10T22:11:59.483Z,53.67
2018-11-10T22:14:27.151Z,51.53
2018-11-10T22:16:54.968Z,67.73
2018-11-10T22:19:22.751Z,59.80
2018-11-10T22:21:50.705Z,43.50
2018-11-10T22:24:18.589Z,47.77
2018-11-10T22:26:47.028Z,45.07
2018-11-10T22:29:14.772Z,55.17
2018-11-10T22:31:43.480Z,39.63
2018-11-10T22:34:11.199Z,50.93
2018-11-10T22:36:39.005Z,48.07
2018-11-10T22:39:08.565Z,42.93
2018-11-10T22:41:36.398Z,41.80
2018-11-10T22:44:04.138Z,30.43
2018-11-10T22:46:31.903Z,36.50
2018-11-10T22:48:59.571Z,41.07
2018-11-10T22:51:27.257Z,37.73
2018-11-10T22:53:54.973Z,33.10
2018-11-10T22:56:22.743Z,35.73
2018-11-10T22:58:50.426Z,38.10
2018-11-10T23:01:18.325Z,40.17
2018-11-10T23:03:46.176Z,29.93
2018-11-10T23:06:14.031Z,35.63
2018-11-10T23:16:38.157Z,59.77
2018-11-10T23:19:24.761Z,40.13
2018-11-10T23:21:52.466Z,46.93
2018-11-10T23:24:20.378Z,48.57
2018-11-10T23:26:48.065Z,34.40
2018-11-10T23:29:15.851Z,39.30
2018-11-10T23:31:43.662Z,45.27
2018-11-10T23:34:11.493Z,44.60
2018-11-10T23:36:39.162Z,48.07
2018-11-10T23:45:26.068Z,32.27
2018-11-10T23:47:53.879Z,26.57
2018-11-10T23:55:15.407Z,29.97
2018-11-10T23:57:43.049Z,44.50
